sensor_id;sensor_type;location;lat;lon;timestamp;P1;durP1;ratioP1;P2;durP2;ratioP2
44214;SDS011;29884;47.450;19.124;2022-08-30T00:01:08;2.80;;;2.47;;
44214;SDS011;29884;47.450;19.124;2022-08-30T00:03:40;2.60;;;2.40;;
44214;SDS011;29884;47.450;19.124;2022-08-30T00:06:15;3.88;;;2.20;;
44214;SDS011;29884;47.450;19.124;2022-08-30T00:08:42;4.40;;;2.70;;
44214;SDS011;29884;47.450;19.124;2022-08-30T00:11:10;3.03;;;2.60;;
44214;SDS011;29884;47.450;19.124;2022-08-30T00:13:39;3.78;;;2.65;;
44214;SDS011;29884;47.450;19.124;2022-08-30T00:16:07;4.35;;;2.55;;
44214;SDS011;29884;47.450;19.124;2022-08-30T00:18:34;3.10;;;2.53;;
44214;SDS011;29884;47.450;19.124;2022-08-30T00:21:00;3.22;;;2.53;;
44214;SDS011;29884;47.450;19.124;2022-08-30T00:23:26;4.18;;;2.63;;
44214;SDS011;29884;47.450;19.124;2022-08-30T00:25:52;2.70;;;1.95;;
44214;SDS011;29884;47.450;19.124;2022-08-30T00:28:18;2.90;;;2.67;;
44214;SDS011;29884;47.450;19.124;2022-08-30T00:30:45;3.10;;;2.80;;
44214;SDS011;29884;47.450;19.124;2022-08-30T00:33:12;3.67;;;2.60;;
44214;SDS011;29884;47.450;19.124;2022-08-30T00:35:39;3.88;;;2.83;;
44214;SDS011;29884;47.450;19.124;2022-08-30T00:38:08;3.67;;;2.45;;
44214;SDS011;29884;47.450;19.124;2022-08-30T00:40:36;4.50;;;2.50;;
44214;SDS011;29884;47.450;19.124;2022-08-30T00:43:03;3.42;;;3.10;;
44214;SDS011;29884;47.450;19.124;2022-08-30T00:45:33;3.42;;;2.70;;
44214;SDS011;29884;47.450;19.124;2022-08-30T00:48:01;4.10;;;2.60;;
44214;SDS011;29884;47.450;19.124;2022-08-30T00:50:29;3.90;;;2.33;;
44214;SDS011;29884;47.450;19.124;2022-08-30T00:52:59;4.47;;;2.75;;
44214;SDS011;29884;47.450;19.124;2022-08-30T00:55:28;2.92;;;2.65;;
44214;SDS011;29884;47.450;19.124;2022-08-30T00:57:55;2.85;;;2.40;;
44214;SDS011;29884;47.450;19.124;2022-08-30T01:00:25;3.10;;;2.90;;
44214;SDS011;29884;47.450;19.124;2022-08-30T01:02:51;3.35;;;2.85;;
44214;SDS011;29884;47.450;19.124;2022-08-30T01:05:17;4.15;;;2.70;;
44214;SDS011;29884;47.450;19.124;2022-08-30T01:07:43;3.30;;;2.97;;
44214;SDS011;29884;47.450;19.124;2022-08-30T01:10:09;3.22;;;2.80;;
44214;SDS011;29884;47.450;19.124;2022-08-30T01:12:37;2.78;;;2.53;;
44214;SDS011;29884;47.450;19.124;2022-08-30T01:15:04;5.35;;;2.83;;
44214;SDS011;29884;47.450;19.124;2022-08-30T01:17:32;4.28;;;3.13;;
44214;SDS011;29884;47.450;19.124;2022-08-30T01:20:07;3.92;;;2.78;;
44214;SDS011;29884;47.450;19.124;2022-08-30T01:25:14;5.57;;;3.10;;
44214;SDS011;29884;47.450;19.124;2022-08-30T01:27:52;3.10;;;2.63;;
44214;SDS011;29884;47.450;19.124;2022-08-30T01:30:22;6.05;;;2.80;;
44214;SDS011;29884;47.450;19.124;2022-08-30T01:32:48;3.92;;;2.90;;
44214;SDS011;29884;47.450;19.124;2022-08-30T01:35:17;3.17;;;2.88;;
44214;SDS011;29884;47.450;19.124;2022-08-30T01:37:44;4.15;;;3.08;;
44214;SDS011;29884;47.450;19.124;2022-08-30T01:40:12;3.65;;;3.05;;
44214;SDS011;29884;47.450;19.124;2022-08-30T01:42:39;4.63;;;3.28;;
44214;SDS011;29884;47.450;19.124;2022-08-30T01:45:05;5.15;;;3.03;;
44214;SDS011;29884;47.450;19.124;2022-08-30T01:47:31;4.15;;;3.40;;
44214;SDS011;29884;47.450;19.124;2022-08-30T01:49:57;4.03;;;3.28;;
44214;SDS011;29884;47.450;19.124;2022-08-30T01:52:23;4.00;;;3.15;;
44214;SDS011;29884;47.450;19.124;2022-08-30T01:54:50;4.10;;;3.22;;
44214;SDS011;29884;47.450;19.124;2022-08-30T01:57:17;5.95;;;3.15;;
44214;SDS011;29884;47.450;19.124;2022-08-30T01:59:45;4.82;;;2.80;;
44214;SDS011;29884;47.450;19.124;2022-08-30T02:02:12;3.55;;;2.88;;
44214;SDS011;29884;47.450;19.124;2022-08-30T02:04:40;3.38;;;3.08;;
44214;SDS011;29884;47.450;19.124;2022-08-30T02:07:06;4.35;;;2.90;;
44214;SDS011;29884;47.450;19.124;2022-08-30T02:09:33;5.65;;;2.97;;
44214;SDS011;29884;47.450;19.124;2022-08-30T02:11:58;3.15;;;2.83;;
44214;SDS011;29884;47.450;19.124;2022-08-30T02:14:24;5.55;;;3.75;;
44214;SDS011;29884;47.450;19.124;2022-08-30T02:16:50;4.60;;;3.45;;
44214;SDS011;29884;47.450;19.124;2022-08-30T02:19:15;5.82;;;3.40;;
44214;SDS011;29884;47.450;19.124;2022-08-30T02:21:42;6.32;;;3.15;;
44214;SDS011;29884;47.450;19.124;2022-08-30T02:24:08;3.13;;;2.83;;
44214;SDS011;29884;47.450;19.124;2022-08-30T02:26:33;6.07;;;3.30;;
44214;SDS011;29884;47.450;19.124;2022-08-30T02:29:00;4.78;;;2.97;;
44214;SDS011;29884;47.450;19.124;2022-08-30T02:31:29;3.97;;;2.67;;
44214;SDS011;29884;47.450;19.124;2022-08-30T02:33:55;3.90;;;2.88;;
44214;SDS011;29884;47.450;19.124;2022-08-30T02:36:20;5.47;;;3.28;;
44214;SDS011;29884;47.450;19.124;2022-08-30T02:38:47;5.53;;;3.17;;
44214;SDS011;29884;47.450;19.124;2022-08-30T02:41:13;5.88;;;3.28;;
44214;SDS011;29884;47.450;19.124;2022-08-30T02:43:39;6.88;;;3.60;;
44214;SDS011;29884;47.450;19.124;2022-08-30T02:46:05;3.75;;;2.92;;
44214;SDS011;29884;47.450;19.124;2022-08-30T02:48:31;6.05;;;3.45;;
44214;SDS011;29884;47.450;19.124;2022-08-30T02:51:02;5.78;;;3.55;;
44214;SDS011;29884;47.450;19.124;2022-08-30T02:53:30;5.45;;;3.35;;
44214;SDS011;29884;47.450;19.124;2022-08-30T02:55:55;4.80;;;3.50;;
44214;SDS011;29884;47.450;19.124;2022-08-30T02:58:21;7.05;;;3.20;;
44214;SDS011;29884;47.450;19.124;2022-08-30T03:00:47;4.03;;;3.28;;
44214;SDS011;29884;47.450;19.124;2022-08-30T03:03:13;5.07;;;3.65;;
44214;SDS011;29884;47.450;19.124;2022-08-30T03:05:38;6.55;;;3.50;;
44214;SDS011;29884;47.450;19.124;2022-08-30T03:08:04;3.25;;;2.95;;
44214;SDS011;29884;47.450;19.124;2022-08-30T03:10:30;4.13;;;3.35;;
44214;SDS011;29884;47.450;19.124;2022-08-30T03:12:56;5.93;;;3.63;;
44214;SDS011;29884;47.450;19.124;2022-08-30T03:15:22;7.68;;;3.80;;
44214;SDS011;29884;47.450;19.124;2022-08-30T03:17:51;3.53;;;3.22;;
44214;SDS011;29884;47.450;19.124;2022-08-30T03:20:19;4.28;;;3.13;;
44214;SDS011;29884;47.450;19.124;2022-08-30T03:22:45;5.10;;;3.72;;
44214;SDS011;29884;47.450;19.124;2022-08-30T03:25:11;7.10;;;3.75;;
44214;SDS011;29884;47.450;19.124;2022-08-30T03:27:37;5.43;;;3.95;;
44214;SDS011;29884;47.450;19.124;2022-08-30T03:30:03;5.03;;;3.63;;
44214;SDS011;29884;47.450;19.124;2022-08-30T03:32:30;4.72;;;3.83;;
44214;SDS011;29884;47.450;19.124;2022-08-30T03:34:56;4.22;;;3.55;;
44214;SDS011;29884;47.450;19.124;2022-08-30T03:37:22;5.10;;;3.50;;
44214;SDS011;29884;47.450;19.124;2022-08-30T03:39:48;4.20;;;3.80;;
44214;SDS011;29884;47.450;19.124;2022-08-30T03:42:13;7.15;;;4.22;;
44214;SDS011;29884;47.450;19.124;2022-08-30T03:44:39;4.50;;;4.10;;
44214;SDS011;29884;47.450;19.124;2022-08-30T03:47:05;5.45;;;3.70;;
44214;SDS011;29884;47.450;19.124;2022-08-30T03:49:32;4.90;;;3.60;;
44214;SDS011;29884;47.450;19.124;2022-08-30T03:51:58;7.75;;;3.95;;
44214;SDS011;29884;47.450;19.124;2022-08-30T03:54:24;5.10;;;3.60;;
44214;SDS011;29884;47.450;19.124;2022-08-30T03:56:50;3.80;;;3.50;;
44214;SDS011;29884;47.450;19.124;2022-08-30T03:59:16;5.50;;;3.70;;
44214;SDS011;29884;47.450;19.124;2022-08-30T04:01:41;4.38;;;3.75;;
44214;SDS011;29884;47.450;19.124;2022-08-30T04:04:09;4.68;;;3.90;;
44214;SDS011;29884;47.450;19.124;2022-08-30T04:06:36;4.88;;;4.00;;
44214;SDS011;29884;47.450;19.124;2022-08-30T04:09:02;4.13;;;3.60;;
44214;SDS011;29884;47.450;19.124;2022-08-30T04:11:28;5.57;;;3.80;;
44214;SDS011;29884;47.450;19.124;2022-08-30T04:13:54;5.38;;;3.75;;
44214;SDS011;29884;47.450;19.124;2022-08-30T04:16:20;5.35;;;4.22;;
44214;SDS011;29884;47.450;19.124;2022-08-30T04:18:47;4.00;;;3.60;;
44214;SDS011;29884;47.450;19.124;2022-08-30T04:21:13;6.00;;;3.90;;
44214;SDS011;29884;47.450;19.124;2022-08-30T04:23:40;5.95;;;3.95;;
44214;SDS011;29884;47.450;19.124;2022-08-30T04:26:06;8.75;;;4.25;;
44214;SDS011;29884;47.450;19.124;2022-08-30T04:28:32;3.95;;;3.58;;
44214;SDS011;29884;47.450;19.124;2022-08-30T04:31:02;6.32;;;4.13;;
44214;SDS011;29884;47.450;19.124;2022-08-30T04:33:33;4.65;;;3.72;;
44214;SDS011;29884;47.450;19.124;2022-08-30T04:36:00;5.22;;;4.22;;
44214;SDS011;29884;47.450;19.124;2022-08-30T04:38:29;5.93;;;4.53;;
44214;SDS011;29884;47.450;19.124;2022-08-30T04:40:56;4.28;;;3.88;;
44214;SDS011;29884;47.450;19.124;2022-08-30T04:43:22;6.05;;;4.43;;
44214;SDS011;29884;47.450;19.124;2022-08-30T04:45:51;10.90;;;4.47;;
44214;SDS011;29884;47.450;19.124;2022-08-30T04:48:18;6.70;;;4.07;;
44214;SDS011;29884;47.450;19.124;2022-08-30T04:50:44;6.90;;;4.38;;
44214;SDS011;29884;47.450;19.124;2022-08-30T04:53:11;4.78;;;4.05;;
44214;SDS011;29884;47.450;19.124;2022-08-30T04:55:40;9.95;;;4.40;;
44214;SDS011;29884;47.450;19.124;2022-08-30T04:58:07;5.95;;;4.38;;
44214;SDS011;29884;47.450;19.124;2022-08-30T05:00:34;5.35;;;4.35;;
44214;SDS011;29884;47.450;19.124;2022-08-30T05:03:01;5.47;;;4.10;;
44214;SDS011;29884;47.450;19.124;2022-08-30T05:05:28;6.00;;;4.40;;
44214;SDS011;29884;47.450;19.124;2022-08-30T05:08:10;5.05;;;4.43;;
44214;SDS011;29884;47.450;19.124;2022-08-30T05:10:38;7.10;;;4.32;;
44214;SDS011;29884;47.450;19.124;2022-08-30T05:13:05;5.78;;;4.53;;
44214;SDS011;29884;47.450;19.124;2022-08-30T05:15:32;6.10;;;4.18;;
44214;SDS011;29884;47.450;19.124;2022-08-30T05:17:58;8.60;;;4.65;;
44214;SDS011;29884;47.450;19.124;2022-08-30T05:20:23;6.13;;;4.13;;
44214;SDS011;29884;47.450;19.124;2022-08-30T05:22:49;9.02;;;4.70;;
44214;SDS011;29884;47.450;19.124;2022-08-30T05:25:16;4.72;;;4.13;;
44214;SDS011;29884;47.450;19.124;2022-08-30T05:27:43;4.93;;;4.03;;
44214;SDS011;29884;47.450;19.124;2022-08-30T05:30:10;6.40;;;3.95;;
44214;SDS011;29884;47.450;19.124;2022-08-30T05:32:37;4.60;;;3.47;;
44214;SDS011;29884;47.450;19.124;2022-08-30T05:35:03;5.93;;;3.30;;
44214;SDS011;29884;47.450;19.124;2022-08-30T05:37:30;4.70;;;3.50;;
44214;SDS011;29884;47.450;19.124;2022-08-30T05:39:56;5.63;;;3.70;;
44214;SDS011;29884;47.450;19.124;2022-08-30T05:42:23;7.72;;;3.92;;
44214;SDS011;29884;47.450;19.124;2022-08-30T05:44:50;4.63;;;3.83;;
44214;SDS011;29884;47.450;19.124;2022-08-30T05:47:17;5.43;;;3.60;;
44214;SDS011;29884;47.450;19.124;2022-08-30T05:49:43;6.65;;;3.92;;
44214;SDS011;29884;47.450;19.124;2022-08-30T05:52:09;3.65;;;3.00;;
44214;SDS011;29884;47.450;19.124;2022-08-30T05:54:36;4.70;;;3.47;;
44214;SDS011;29884;47.450;19.124;2022-08-30T05:57:02;6.22;;;3.50;;
44214;SDS011;29884;47.450;19.124;2022-08-30T05:59:28;6.13;;;3.13;;
44214;SDS011;29884;47.450;19.124;2022-08-30T06:01:55;4.05;;;2.95;;
44214;SDS011;29884;47.450;19.124;2022-08-30T06:04:22;8.27;;;3.22;;
44214;SDS011;29884;47.450;19.124;2022-08-30T06:06:47;4.70;;;2.80;;
44214;SDS011;29884;47.450;19.124;2022-08-30T06:09:13;4.53;;;2.90;;
44214;SDS011;29884;47.450;19.124;2022-08-30T06:11:40;4.45;;;2.92;;
44214;SDS011;29884;47.450;19.124;2022-08-30T06:14:06;4.80;;;3.10;;
44214;SDS011;29884;47.450;19.124;2022-08-30T06:16:32;6.85;;;3.53;;
44214;SDS011;29884;47.450;19.124;2022-08-30T06:18:59;5.65;;;3.05;;
44214;SDS011;29884;47.450;19.124;2022-08-30T06:21:30;4.03;;;2.67;;
44214;SDS011;29884;47.450;19.124;2022-08-30T06:23:58;3.25;;;2.67;;
44214;SDS011;29884;47.450;19.124;2022-08-30T06:26:25;5.78;;;2.58;;
44214;SDS011;29884;47.450;19.124;2022-08-30T06:28:53;3.83;;;2.83;;
44214;SDS011;29884;47.450;19.124;2022-08-30T06:31:20;4.07;;;2.45;;
44214;SDS011;29884;47.450;19.124;2022-08-30T06:33:47;4.47;;;2.55;;
44214;SDS011;29884;47.450;19.124;2022-08-30T06:36:14;7.65;;;2.50;;
44214;SDS011;29884;47.450;19.124;2022-08-30T06:38:41;5.35;;;3.00;;
44214;SDS011;29884;47.450;19.124;2022-08-30T06:41:10;2.83;;;2.60;;
44214;SDS011;29884;47.450;19.124;2022-08-30T06:43:38;5.20;;;2.97;;
44214;SDS011;29884;47.450;19.124;2022-08-30T06:46:05;4.05;;;2.83;;
44214;SDS011;29884;47.450;19.124;2022-08-30T06:48:36;5.00;;;2.67;;
44214;SDS011;29884;47.450;19.124;2022-08-30T06:51:02;4.35;;;2.80;;
44214;SDS011;29884;47.450;19.124;2022-08-30T06:53:29;5.57;;;2.55;;
44214;SDS011;29884;47.450;19.124;2022-08-30T06:55:55;6.72;;;2.40;;
44214;SDS011;29884;47.450;19.124;2022-08-30T06:58:22;4.00;;;2.35;;
44214;SDS011;29884;47.450;19.124;2022-08-30T07:00:49;8.13;;;2.92;;
44214;SDS011;29884;47.450;19.124;2022-08-30T07:03:14;3.10;;;2.60;;
44214;SDS011;29884;47.450;19.124;2022-08-30T07:05:40;4.50;;;2.30;;
44214;SDS011;29884;47.450;19.124;2022-08-30T07:08:06;4.35;;;2.50;;
44214;SDS011;29884;47.450;19.124;2022-08-30T07:10:31;5.70;;;2.72;;
44214;SDS011;29884;47.450;19.124;2022-08-30T07:12:57;3.78;;;2.50;;
44214;SDS011;29884;47.450;19.124;2022-08-30T07:15:23;5.25;;;2.63;;
44214;SDS011;29884;47.450;19.124;2022-08-30T07:17:49;3.97;;;2.10;;
44214;SDS011;29884;47.450;19.124;2022-08-30T07:20:36;3.22;;;2.00;;
44214;SDS011;29884;47.450;19.124;2022-08-30T07:23:02;4.00;;;2.00;;
44214;SDS011;29884;47.450;19.124;2022-08-30T07:25:28;3.42;;;1.60;;
44214;SDS011;29884;47.450;19.124;2022-08-30T07:27:54;2.40;;;1.75;;
44214;SDS011;29884;47.450;19.124;2022-08-30T07:30:21;2.75;;;1.70;;
44214;SDS011;29884;47.450;19.124;2022-08-30T07:32:47;3.83;;;1.70;;
44214;SDS011;29884;47.450;19.124;2022-08-30T07:35:13;2.55;;;1.50;;
44214;SDS011;29884;47.450;19.124;2022-08-30T07:37:39;2.65;;;1.38;;
44214;SDS011;29884;47.450;19.124;2022-08-30T07:40:05;3.88;;;1.48;;
44214;SDS011;29884;47.450;19.124;2022-08-30T07:42:31;4.20;;;1.50;;
44214;SDS011;29884;47.450;19.124;2022-08-30T07:44:57;5.15;;;1.70;;
44214;SDS011;29884;47.450;19.124;2022-08-30T07:47:23;4.10;;;1.30;;
44214;SDS011;29884;47.450;19.124;2022-08-30T07:49:48;2.20;;;1.20;;
44214;SDS011;29884;47.450;19.124;2022-08-30T07:52:14;2.10;;;1.10;;
44214;SDS011;29884;47.450;19.124;2022-08-30T07:54:40;2.95;;;1.17;;
44214;SDS011;29884;47.450;19.124;2022-08-30T07:57:07;4.43;;;1.25;;
44214;SDS011;29884;47.450;19.124;2022-08-30T07:59:32;1.80;;;1.20;;
44214;SDS011;29884;47.450;19.124;2022-08-30T08:01:58;1.27;;;1.13;;
44214;SDS011;29884;47.450;19.124;2022-08-30T08:04:24;2.42;;;1.30;;
44214;SDS011;29884;47.450;19.124;2022-08-30T08:06:50;2.95;;;1.20;;
44214;SDS011;29884;47.450;19.124;2022-08-30T08:09:16;2.38;;;1.20;;
44214;SDS011;29884;47.450;19.124;2022-08-30T08:11:42;2.58;;;1.10;;
44214;SDS011;29884;47.450;19.124;2022-08-30T08:14:08;1.98;;;1.10;;
44214;SDS011;29884;47.450;19.124;2022-08-30T08:16:34;1.70;;;1.20;;
44214;SDS011;29884;47.450;19.124;2022-08-30T08:19:00;2.58;;;1.30;;
44214;SDS011;29884;47.450;19.124;2022-08-30T08:21:26;3.08;;;1.30;;
44214;SDS011;29884;47.450;19.124;2022-08-30T08:23:52;2.45;;;1.40;;
44214;SDS011;29884;47.450;19.124;2022-08-30T08:26:19;4.50;;;1.50;;
44214;SDS011;29884;47.450;19.124;2022-08-30T08:28:45;3.40;;;1.40;;
44214;SDS011;29884;47.450;19.124;2022-08-30T08:31:15;3.15;;;1.35;;
44214;SDS011;29884;47.450;19.124;2022-08-30T08:33:42;4.15;;;1.40;;
44214;SDS011;29884;47.450;19.124;2022-08-30T08:36:08;2.28;;;1.30;;
44214;SDS011;29884;47.450;19.124;2022-08-30T08:38:34;2.20;;;1.50;;
44214;SDS011;29884;47.450;19.124;2022-08-30T08:43:29;2.53;;;1.10;;
44214;SDS011;29884;47.450;19.124;2022-08-30T08:46:09;3.45;;;1.50;;
44214;SDS011;29884;47.450;19.124;2022-08-30T08:48:53;2.13;;;1.25;;
44214;SDS011;29884;47.450;19.124;2022-08-30T08:51:23;3.45;;;1.30;;
44214;SDS011;29884;47.450;19.124;2022-08-30T08:54:11;2.35;;;1.20;;
44214;SDS011;29884;47.450;19.124;2022-08-30T08:56:38;2.17;;;1.20;;
44214;SDS011;29884;47.450;19.124;2022-08-30T08:59:05;2.13;;;1.20;;
44214;SDS011;29884;47.450;19.124;2022-08-30T09:01:33;2.28;;;1.33;;
44214;SDS011;29884;47.450;19.124;2022-08-30T09:04:04;4.78;;;1.27;;
44214;SDS011;29884;47.450;19.124;2022-08-30T09:09:17;5.85;;;1.42;;
44214;SDS011;29884;47.450;19.124;2022-08-30T09:11:48;3.08;;;1.40;;
44214;SDS011;29884;47.450;19.124;2022-08-30T09:14:25;4.15;;;1.40;;
44214;SDS011;29884;47.450;19.124;2022-08-30T09:17:00;4.97;;;1.40;;
44214;SDS011;29884;47.450;19.124;2022-08-30T09:21:57;2.80;;;1.40;;
44214;SDS011;29884;47.450;19.124;2022-08-30T09:24:24;3.15;;;1.20;;
44214;SDS011;29884;47.450;19.124;2022-08-30T09:26:50;4.47;;;1.40;;
44214;SDS011;29884;47.450;19.124;2022-08-30T09:29:17;2.45;;;1.30;;
44214;SDS011;29884;47.450;19.124;2022-08-30T09:31:48;1.70;;;1.20;;
44214;SDS011;29884;47.450;19.124;2022-08-30T09:34:18;3.45;;;1.50;;
44214;SDS011;29884;47.450;19.124;2022-08-30T09:36:49;3.17;;;1.50;;
44214;SDS011;29884;47.450;19.124;2022-08-30T09:42:12;1.75;;;1.10;;
44214;SDS011;29884;47.450;19.124;2022-08-30T09:44:38;3.00;;;1.15;;
44214;SDS011;29884;47.450;19.124;2022-08-30T09:47:05;4.90;;;1.30;;
44214;SDS011;29884;47.450;19.124;2022-08-30T09:49:44;2.42;;;1.20;;
44214;SDS011;29884;47.450;19.124;2022-08-30T10:00:51;3.72;;;1.40;;
44214;SDS011;29884;47.450;19.124;2022-08-30T10:03:56;2.30;;;1.33;;
44214;SDS011;29884;47.450;19.124;2022-08-30T10:06:49;6.53;;;1.50;;
44214;SDS011;29884;47.450;19.124;2022-08-30T10:20:28;8.38;;;1.40;;
44214;SDS011;29884;47.450;19.124;2022-08-30T10:23:11;2.95;;;1.75;;
44214;SDS011;29884;47.450;19.124;2022-08-30T10:25:43;3.83;;;1.40;;
44214;SDS011;29884;47.450;19.124;2022-08-30T10:30:42;2.45;;;1.40;;
44214;SDS011;29884;47.450;19.124;2022-08-30T10:33:16;3.30;;;1.50;;
44214;SDS011;29884;47.450;19.124;2022-08-30T10:35:49;2.72;;;1.30;;
44214;SDS011;29884;47.450;19.124;2022-08-30T10:40:53;4.35;;;1.30;;
44214;SDS011;29884;47.450;19.124;2022-08-30T10:49:43;3.08;;;1.50;;
44214;SDS011;29884;47.450;19.124;2022-08-30T10:54:59;5.43;;;1.73;;
44214;SDS011;29884;47.450;19.124;2022-08-30T10:57:42;3.13;;;1.55;;
44214;SDS011;29884;47.450;19.124;2022-08-30T11:00:13;7.70;;;1.70;;
44214;SDS011;29884;47.450;19.124;2022-08-30T11:05:24;2.60;;;1.63;;
44214;SDS011;29884;47.450;19.124;2022-08-30T11:13:29;4.65;;;1.60;;
44214;SDS011;29884;47.450;19.124;2022-08-30T11:16:02;4.45;;;1.60;;
44214;SDS011;29884;47.450;19.124;2022-08-30T11:18:42;4.97;;;1.80;;
44214;SDS011;29884;47.450;19.124;2022-08-30T11:21:18;1.98;;;1.50;;
44214;SDS011;29884;47.450;19.124;2022-08-30T11:24:05;2.60;;;1.50;;
44214;SDS011;29884;47.450;19.124;2022-08-30T11:32:18;3.05;;;1.60;;
44214;SDS011;29884;47.450;19.124;2022-08-30T11:45:48;3.65;;;1.60;;
44214;SDS011;29884;47.450;19.124;2022-08-30T11:48:05;2.63;;;1.42;;
44214;SDS011;29884;47.450;19.124;2022-08-30T11:50:54;1.52;;;1.30;;
44214;SDS011;29884;47.450;19.124;2022-08-30T12:16:20;2.28;;;1.10;;
44214;SDS011;29884;47.450;19.124;2022-08-30T12:18:58;1.70;;;1.33;;
44214;SDS011;29884;47.450;19.124;2022-08-30T12:21:38;2.33;;;1.20;;
44214;SDS011;29884;47.450;19.124;2022-08-30T12:24:17;3.53;;;1.30;;
44214;SDS011;29884;47.450;19.124;2022-08-30T12:26:51;2.58;;;1.40;;
44214;SDS011;29884;47.450;19.124;2022-08-30T12:29:19;1.98;;;1.38;;
44214;SDS011;29884;47.450;19.124;2022-08-30T12:34:34;2.28;;;1.60;;
44214;SDS011;29884;47.450;19.124;2022-08-30T12:40:07;2.00;;;1.20;;
44214;SDS011;29884;47.450;19.124;2022-08-30T12:42:40;1.98;;;1.30;;
44214;SDS011;29884;47.450;19.124;2022-08-30T12:45:16;3.75;;;1.50;;
44214;SDS011;29884;47.450;19.124;2022-08-30T12:48:05;1.65;;;1.17;;
44214;SDS011;29884;47.450;19.124;2022-08-30T12:53:20;4.25;;;1.20;;
44214;SDS011;29884;47.450;19.124;2022-08-30T12:55:56;1.80;;;1.23;;
44214;SDS011;29884;47.450;19.124;2022-08-30T13:01:32;2.33;;;1.30;;
44214;SDS011;29884;47.450;19.124;2022-08-30T13:09:29;1.98;;;1.10;;
44214;SDS011;29884;47.450;19.124;2022-08-30T13:12:04;3.45;;;1.20;;
44214;SDS011;29884;47.450;19.124;2022-08-30T13:14:45;3.40;;;1.20;;
44214;SDS011;29884;47.450;19.124;2022-08-30T13:19:43;8.33;;;1.40;;
44214;SDS011;29884;47.450;19.124;2022-08-30T13:22:22;2.63;;;1.20;;
44214;SDS011;29884;47.450;19.124;2022-08-30T13:24:51;2.30;;;1.30;;
44214;SDS011;29884;47.450;19.124;2022-08-30T13:27:17;2.60;;;1.48;;
44214;SDS011;29884;47.450;19.124;2022-08-30T13:29:44;3.35;;;1.38;;
44214;SDS011;29884;47.450;19.124;2022-08-30T13:32:10;3.55;;;1.35;;
44214;SDS011;29884;47.450;19.124;2022-08-30T13:34:37;2.05;;;1.50;;
44214;SDS011;29884;47.450;19.124;2022-08-30T13:37:03;2.17;;;1.27;;
44214;SDS011;29884;47.450;19.124;2022-08-30T13:39:31;2.72;;;1.40;;
44214;SDS011;29884;47.450;19.124;2022-08-30T13:41:57;1.55;;;1.25;;
44214;SDS011;29884;47.450;19.124;2022-08-30T13:44:23;3.38;;;1.30;;
44214;SDS011;29884;47.450;19.124;2022-08-30T13:46:50;7.10;;;1.35;;
44214;SDS011;29884;47.450;19.124;2022-08-30T13:49:19;2.97;;;1.50;;
44214;SDS011;29884;47.450;19.124;2022-08-30T13:51:47;4.55;;;1.30;;
44214;SDS011;29884;47.450;19.124;2022-08-30T13:54:15;3.63;;;1.42;;
44214;SDS011;29884;47.450;19.124;2022-08-30T13:56:40;2.83;;;1.50;;
44214;SDS011;29884;47.450;19.124;2022-08-30T13:59:06;2.50;;;1.30;;
44214;SDS011;29884;47.450;19.124;2022-08-30T14:01:32;6.65;;;2.10;;
44214;SDS011;29884;47.450;19.124;2022-08-30T14:03:58;2.42;;;1.50;;
44214;SDS011;29884;47.450;19.124;2022-08-30T14:06:23;6.50;;;3.33;;
44214;SDS011;29884;47.450;19.124;2022-08-30T14:08:49;5.43;;;3.15;;
44214;SDS011;29884;47.450;19.124;2022-08-30T14:11:17;2.83;;;1.63;;
44214;SDS011;29884;47.450;19.124;2022-08-30T14:13:44;2.80;;;1.60;;
44214;SDS011;29884;47.450;19.124;2022-08-30T14:16:11;4.00;;;1.88;;
44214;SDS011;29884;47.450;19.124;2022-08-30T14:18:36;3.35;;;1.48;;
44214;SDS011;29884;47.450;19.124;2022-08-30T14:21:02;2.03;;;1.40;;
44214;SDS011;29884;47.450;19.124;2022-08-30T14:23:28;2.42;;;1.20;;
44214;SDS011;29884;47.450;19.124;2022-08-30T14:25:55;4.97;;;1.80;;
44214;SDS011;29884;47.450;19.124;2022-08-30T14:28:21;3.75;;;1.70;;
44214;SDS011;29884;47.450;19.124;2022-08-30T14:30:47;1.83;;;1.30;;
44214;SDS011;29884;47.450;19.124;2022-08-30T14:33:13;1.77;;;1.35;;
44214;SDS011;29884;47.450;19.124;2022-08-30T14:35:39;1.60;;;1.27;;
44214;SDS011;29884;47.450;19.124;2022-08-30T14:38:05;3.60;;;1.40;;
44214;SDS011;29884;47.450;19.124;2022-08-30T14:40:30;4.28;;;1.60;;
44214;SDS011;29884;47.450;19.124;2022-08-30T14:42:56;2.78;;;1.30;;
44214;SDS011;29884;47.450;19.124;2022-08-30T14:45:22;3.45;;;1.50;;
44214;SDS011;29884;47.450;19.124;2022-08-30T14:47:48;2.05;;;1.48;;
44214;SDS011;29884;47.450;19.124;2022-08-30T14:50:14;4.03;;;2.10;;
44214;SDS011;29884;47.450;19.124;2022-08-30T14:52:40;3.20;;;1.73;;
44214;SDS011;29884;47.450;19.124;2022-08-30T14:55:07;4.93;;;2.20;;
44214;SDS011;29884;47.450;19.124;2022-08-30T14:57:34;3.30;;;1.77;;
44214;SDS011;29884;47.450;19.124;2022-08-30T15:00:00;3.13;;;1.55;;
44214;SDS011;29884;47.450;19.124;2022-08-30T15:02:26;3.03;;;1.40;;
44214;SDS011;29884;47.450;19.124;2022-08-30T15:04:52;3.00;;;1.63;;
44214;SDS011;29884;47.450;19.124;2022-08-30T15:07:17;2.55;;;1.42;;
44214;SDS011;29884;47.450;19.124;2022-08-30T15:09:43;3.38;;;1.58;;
44214;SDS011;29884;47.450;19.124;2022-08-30T15:12:09;3.67;;;1.60;;
44214;SDS011;29884;47.450;19.124;2022-08-30T15:14:34;2.63;;;1.42;;
44214;SDS011;29884;47.450;19.124;2022-08-30T15:17:00;2.45;;;1.50;;
44214;SDS011;29884;47.450;19.124;2022-08-30T15:19:29;4.78;;;1.67;;
44214;SDS011;29884;47.450;19.124;2022-08-30T15:22:03;1.63;;;1.33;;
44214;SDS011;29884;47.450;19.124;2022-08-30T15:24:29;2.60;;;1.42;;
44214;SDS011;29884;47.450;19.124;2022-08-30T15:26:57;2.53;;;1.50;;
44214;SDS011;29884;47.450;19.124;2022-08-30T15:29:24;3.17;;;1.50;;
44214;SDS011;29884;47.450;19.124;2022-08-30T15:31:49;5.47;;;1.55;;
44214;SDS011;29884;47.450;19.124;2022-08-30T15:34:17;2.67;;;1.35;;
44214;SDS011;29884;47.450;19.124;2022-08-30T15:36:44;6.32;;;1.50;;
44214;SDS011;29884;47.450;19.124;2022-08-30T15:39:12;2.70;;;1.40;;
44214;SDS011;29884;47.450;19.124;2022-08-30T15:41:38;3.70;;;1.60;;
44214;SDS011;29884;47.450;19.124;2022-08-30T15:44:05;2.50;;;1.55;;
44214;SDS011;29884;47.450;19.124;2022-08-30T15:46:35;3.45;;;1.88;;
44214;SDS011;29884;47.450;19.124;2022-08-30T15:49:07;4.78;;;1.55;;
44214;SDS011;29884;47.450;19.124;2022-08-30T15:51:43;4.53;;;1.60;;
44214;SDS011;29884;47.450;19.124;2022-08-30T15:54:11;4.93;;;1.50;;
44214;SDS011;29884;47.450;19.124;2022-08-30T15:56:38;4.10;;;1.70;;
44214;SDS011;29884;47.450;19.124;2022-08-30T15:59:04;4.78;;;1.52;;
44214;SDS011;29884;47.450;19.124;2022-08-30T16:01:30;3.10;;;1.45;;
44214;SDS011;29884;47.450;19.124;2022-08-30T16:03:57;2.90;;;1.55;;
44214;SDS011;29884;47.450;19.124;2022-08-30T16:06:25;2.83;;;1.50;;
44214;SDS011;29884;47.450;19.124;2022-08-30T16:08:53;3.20;;;1.83;;
44214;SDS011;29884;47.450;19.124;2022-08-30T16:11:20;2.53;;;1.58;;
44214;SDS011;29884;47.450;19.124;2022-08-30T16:13:47;2.67;;;1.58;;
44214;SDS011;29884;47.450;19.124;2022-08-30T16:16:13;3.50;;;1.60;;
44214;SDS011;29884;47.450;19.124;2022-08-30T16:18:39;3.13;;;1.73;;
44214;SDS011;29884;47.450;19.124;2022-08-30T16:21:07;4.45;;;1.73;;
44214;SDS011;29884;47.450;19.124;2022-08-30T16:23:39;3.75;;;1.50;;
44214;SDS011;29884;47.450;19.124;2022-08-30T16:26:06;5.97;;;1.52;;
44214;SDS011;29884;47.450;19.124;2022-08-30T16:28:32;2.70;;;1.50;;
44214;SDS011;29884;47.450;19.124;2022-08-30T16:30:59;2.65;;;1.50;;
44214;SDS011;29884;47.450;19.124;2022-08-30T16:33:26;1.55;;;1.20;;